LYN YRTI-YPJT
Flight info
| Callsign | LYN |
|---|---|
| Flight time | 0h 17m |
| Altitude | 3000 |
| Route | DCT |
| Aircraft | C182/L-FGORVZ/L |
Departure
| Time | 2026-05-06 08:39 |
|---|---|
| Airport | Rottnest Island Airport (YRTI) |
Arrival
| Time | 2026-05-06 08:57 |
|---|---|
| Airport | Perth Jandakot Airport (YPJT) |
| Time | Latitude | Longitude | Altitude | Speed | Heading |
|---|---|---|---|---|---|
| 2026-05-06 08:26 | -32.00533 | 115.54281 | 16 ft | 0 kts | 0° |
| 2026-05-06 08:33 | -32.00542 | 115.54305 | 16 ft | 10 kts | 150° |
| 2026-05-06 08:33 | -32.00581 | 115.54312 | 17 ft | 0 kts | 195° |
| 2026-05-06 08:37 | -32.00585 | 115.54311 | 17 ft | 0 kts | 180° |
| 2026-05-06 08:37 | -32.00617 | 115.54335 | 18 ft | 10 kts | 116° |
| 2026-05-06 08:38 | -32.00620 | 115.54423 | 18 ft | 12 kts | 86° |
| 2026-05-06 08:38 | -32.00628 | 115.54427 | 18 ft | 0 kts | 264° |
| 2026-05-06 08:38 | -32.00627 | 115.54182 | 17 ft | 61 kts | 271° |
| 2026-05-06 08:39 | -32.00616 | 115.53505 | 122 ft | 94 kts | 269° |
| 2026-05-06 08:39 | -32.00583 | 115.52702 | 383 ft | 101 kts | 271° |
| 2026-05-06 08:39 | -32.00552 | 115.51888 | 711 ft | 102 kts | 270° |
| 2026-05-06 08:39 | -32.00673 | 115.51079 | 1029 ft | 101 kts | 234° |
| 2026-05-06 08:40 | -32.01225 | 115.50606 | 1270 ft | 102 kts | 186° |
| 2026-05-06 08:40 | -32.01891 | 115.50749 | 1561 ft | 98 kts | 146° |
| 2026-05-06 08:40 | -32.02309 | 115.51315 | 1974 ft | 90 kts | 109° |
| 2026-05-06 08:40 | -32.02353 | 115.52060 | 2294 ft | 93 kts | 80° |
| 2026-05-06 08:41 | -32.01970 | 115.52675 | 2620 ft | 103 kts | 33° |
| 2026-05-06 08:41 | -32.01244 | 115.52641 | 2934 ft | 113 kts | 338° |
| 2026-05-06 08:41 | -32.00508 | 115.52252 | 3097 ft | 121 kts | 5° |
| 2026-05-06 08:41 | -31.99942 | 115.52779 | 3288 ft | 106 kts | 82° |
| 2026-05-06 08:42 | -31.99981 | 115.53668 | 3267 ft | 112 kts | 96° |
| 2026-05-06 08:42 | -32.00186 | 115.54575 | 3056 ft | 118 kts | 119° |
| 2026-05-06 08:42 | -32.00694 | 115.55270 | 3022 ft | 107 kts | 129° |
| 2026-05-06 08:42 | -32.01221 | 115.55875 | 3002 ft | 104 kts | 129° |
| 2026-05-06 08:43 | -32.01674 | 115.56515 | 2998 ft | 100 kts | 126° |
| 2026-05-06 08:43 | -32.02127 | 115.57128 | 3001 ft | 98 kts | 128° |
| 2026-05-06 08:43 | -32.02602 | 115.57733 | 2897 ft | 108 kts | 134° |
| 2026-05-06 08:43 | -32.03143 | 115.58399 | 2784 ft | 115 kts | 134° |
| 2026-05-06 08:44 | -32.03712 | 115.59088 | 2669 ft | 120 kts | 134° |
| 2026-05-06 08:44 | -32.04304 | 115.59798 | 2552 ft | 122 kts | 134° |
| 2026-05-06 08:44 | -32.04875 | 115.60481 | 2618 ft | 109 kts | 134° |
| 2026-05-06 08:44 | -32.05393 | 115.61100 | 2666 ft | 105 kts | 134° |
| 2026-05-06 08:45 | -32.05907 | 115.61714 | 2659 ft | 107 kts | 134° |
| 2026-05-06 08:45 | -32.06418 | 115.62323 | 2649 ft | 102 kts | 134° |
| 2026-05-06 08:45 | -32.06921 | 115.62924 | 2535 ft | 105 kts | 134° |
| 2026-05-06 08:45 | -32.07443 | 115.63547 | 2431 ft | 106 kts | 134° |
| 2026-05-06 08:46 | -32.07956 | 115.64159 | 2332 ft | 106 kts | 134° |
| 2026-05-06 08:46 | -32.08478 | 115.64783 | 2207 ft | 108 kts | 134° |
| 2026-05-06 08:46 | -32.09013 | 115.65422 | 2070 ft | 110 kts | 134° |
| 2026-05-06 08:46 | -32.09544 | 115.66056 | 2004 ft | 104 kts | 134° |
| 2026-05-06 08:47 | -32.10033 | 115.66640 | 1992 ft | 98 kts | 134° |
| 2026-05-06 08:47 | -32.10503 | 115.67202 | 1990 ft | 94 kts | 134° |
| 2026-05-06 08:47 | -32.10954 | 115.67742 | 1988 ft | 91 kts | 134° |
| 2026-05-06 08:47 | -32.11392 | 115.68266 | 1990 ft | 90 kts | 134° |
| 2026-05-06 08:48 | -32.11835 | 115.68796 | 1991 ft | 91 kts | 134° |
| 2026-05-06 08:48 | -32.12277 | 115.69325 | 1991 ft | 92 kts | 134° |
| 2026-05-06 08:48 | -32.12753 | 115.69830 | 1991 ft | 92 kts | 144° |
| 2026-05-06 08:48 | -32.13309 | 115.70220 | 1991 ft | 92 kts | 146° |
| 2026-05-06 08:49 | -32.13834 | 115.70643 | 1987 ft | 93 kts | 144° |
| 2026-05-06 08:49 | -32.14363 | 115.71102 | 1961 ft | 95 kts | 141° |
| 2026-05-06 08:49 | -32.14897 | 115.71591 | 1904 ft | 98 kts | 141° |
| 2026-05-06 08:49 | -32.15444 | 115.72066 | 1880 ft | 97 kts | 143° |
| 2026-05-06 08:50 | -32.15985 | 115.72541 | 1851 ft | 96 kts | 143° |
| 2026-05-06 08:50 | -32.16515 | 115.72988 | 1856 ft | 93 kts | 143° |
| 2026-05-06 08:50 | -32.17034 | 115.73430 | 1852 ft | 92 kts | 144° |
| 2026-05-06 08:50 | -32.17548 | 115.73851 | 1848 ft | 91 kts | 136° |
| 2026-05-06 08:51 | -32.17757 | 115.74521 | 1828 ft | 91 kts | 82° |
| 2026-05-06 08:51 | -32.17487 | 115.75185 | 1814 ft | 91 kts | 59° |
| 2026-05-06 08:51 | -32.17135 | 115.75805 | 1817 ft | 88 kts | 55° |
| 2026-05-06 08:51 | -32.16798 | 115.76365 | 1837 ft | 82 kts | 53° |
| 2026-05-06 08:52 | -32.16465 | 115.76912 | 1853 ft | 80 kts | 56° |
| 2026-05-06 08:52 | -32.16152 | 115.77453 | 1867 ft | 79 kts | 56° |
| 2026-05-06 08:52 | -32.15830 | 115.77972 | 1878 ft | 79 kts | 55° |
| 2026-05-06 08:52 | -32.15507 | 115.78498 | 1877 ft | 80 kts | 55° |
| 2026-05-06 08:53 | -32.15185 | 115.79039 | 1859 ft | 83 kts | 54° |
| 2026-05-06 08:53 | -32.14848 | 115.79581 | 1836 ft | 81 kts | 54° |
| 2026-05-06 08:53 | -32.14503 | 115.80123 | 1753 ft | 83 kts | 53° |
| 2026-05-06 08:53 | -32.14142 | 115.80670 | 1637 ft | 85 kts | 52° |
| 2026-05-06 08:54 | -32.13780 | 115.81227 | 1503 ft | 87 kts | 55° |
| 2026-05-06 08:54 | -32.13433 | 115.81815 | 1331 ft | 88 kts | 57° |
| 2026-05-06 08:54 | -32.13092 | 115.82394 | 1178 ft | 85 kts | 56° |
| 2026-05-06 08:54 | -32.12749 | 115.82935 | 1047 ft | 80 kts | 55° |
| 2026-05-06 08:55 | -32.12426 | 115.83460 | 917 ft | 78 kts | 54° |
| 2026-05-06 08:55 | -32.12102 | 115.83969 | 777 ft | 78 kts | 53° |
| 2026-05-06 08:55 | -32.11780 | 115.84481 | 639 ft | 78 kts | 54° |
| 2026-05-06 08:55 | -32.11489 | 115.84960 | 630 ft | 71 kts | 55° |
| 2026-05-06 08:56 | -32.11199 | 115.85448 | 574 ft | 75 kts | 57° |
| 2026-05-06 08:56 | -32.10902 | 115.85962 | 500 ft | 76 kts | 55° |
| 2026-05-06 08:56 | -32.10591 | 115.86475 | 390 ft | 76 kts | 54° |
| 2026-05-06 08:56 | -32.10294 | 115.86966 | 254 ft | 71 kts | 57° |
| 2026-05-06 08:57 | -32.10011 | 115.87440 | 112 ft | 69 kts | 54° |
| 2026-05-06 08:57 | -32.09820 | 115.87756 | 99 ft | 12 kts | 45° |
| 2026-05-06 08:57 | -32.09821 | 115.87716 | 100 ft | 11 kts | 280° |
| 2026-05-06 08:57 | -32.09799 | 115.87687 | 100 ft | 0 kts | 302° |
| 2026-05-06 08:58 | -32.09777 | 115.87668 | 100 ft | 10 kts | 323° |
| 2026-05-06 08:58 | -32.09718 | 115.87576 | 98 ft | 16 kts | 297° |
| 2026-05-06 08:58 | -32.09769 | 115.87462 | 97 ft | 29 kts | 222° |
| 2026-05-06 08:58 | -32.09855 | 115.87306 | 97 ft | 13 kts | 292° |
| 2026-05-06 08:59 | -32.09850 | 115.87294 | 97 ft | 0 kts | 289° |